Time;durP1;ratioP1;P1;durP2;ratioP2;P2;SDS_P1;SDS_P2;PMS_P1;PMS_P2;Temp;Humidity;BMP_temperature;BMP_pressure;BME280_temperature;BME280_humidity;BME280_pressure;Samples;Min_cycle;Max_cycle;Signal;HPM_P1;HPM_P2
2024/01/06 00:00:32;;;;;;;27.40;23.50;;;;;;;5.17;100.00;99523.69;7391256;19;20897;-64
2024/01/06 00:02:59;;;;;;;26.13;22.83;;;;;;;5.17;100.00;99523.69;7387187;19;20369;-64
2024/01/06 00:05:26;;;;;;;27.35;23.92;;;;;;;5.18;100.00;99525.31;7389258;19;20364;-64
2024/01/06 00:07:52;;;;;;;26.83;23.15;;;;;;;5.18;100.00;99525.31;7391219;19;20340;-64
2024/01/06 00:10:19;;;;;;;30.90;25.10;;;;;;;5.20;100.00;99523.34;7387709;19;20340;-64
2024/01/06 00:12:46;;;;;;;27.95;23.33;;;;;;;5.21;100.00;99530.25;7391319;19;20353;-64
2024/01/06 00:15:13;;;;;;;27.02;23.67;;;;;;;5.20;100.00;99528.59;7391692;19;20531;-64
2024/01/06 00:17:40;;;;;;;27.08;23.35;;;;;;;5.21;100.00;99529.44;7388610;19;20754;-64
2024/01/06 00:20:07;;;;;;;28.45;23.95;;;;;;;5.20;100.00;99533.84;7390706;19;20447;-64
2024/01/06 00:22:35;;;;;;;28.25;24.92;;;;;;;5.20;100.00;99536.50;7389727;19;20340;-64
2024/01/06 00:25:02;;;;;;;27.17;23.87;;;;;;;5.19;100.00;99537.50;7393093;19;20424;-64
2024/01/06 00:27:28;;;;;;;29.35;24.52;;;;;;;5.20;100.00;99538.31;7389130;19;20412;-64
2024/01/06 00:29:55;;;;;;;25.55;22.08;;;;;;;5.22;100.00;99542.41;7391679;19;20436;-65
2024/01/06 00:32:22;;;;;;;24.55;21.67;;;;;;;5.22;100.00;99546.84;7390429;19;20896;-64
2024/01/06 00:34:48;;;;;;;25.02;21.73;;;;;;;5.22;100.00;99550.28;7388850;19;20336;-63
2024/01/06 00:37:15;;;;;;;26.20;22.13;;;;;;;5.22;100.00;99545.03;7393153;19;20697;-63
2024/01/06 00:39:42;;;;;;;27.08;21.80;;;;;;;5.22;100.00;99542.41;7392437;19;20356;-63
2024/01/06 00:42:09;;;;;;;22.90;20.27;;;;;;;5.20;100.00;99547.00;7391523;19;20356;-63
2024/01/06 00:44:36;;;;;;;25.38;21.65;;;;;;;5.22;100.00;99546.84;7389368;19;20362;-63
2024/01/06 00:47:03;;;;;;;24.63;21.75;;;;;;;5.22;100.00;99552.91;7389756;19;20719;-63
2024/01/06 00:49:30;;;;;;;24.55;21.77;;;;;;;5.23;100.00;99549.31;7388507;19;20336;-64
2024/01/06 00:51:57;;;;;;;26.05;22.83;;;;;;;5.22;100.00;99547.66;7388023;19;20348;-64
2024/01/06 00:54:23;;;;;;;23.55;20.85;;;;;;;5.18;100.00;99553.44;7389453;19;20374;-63
2024/01/06 00:56:50;;;;;;;23.90;20.75;;;;;;;5.17;100.00;99562.31;7390906;19;20356;-64
2024/01/06 00:59:19;;;;;;;24.70;21.98;;;;;;;5.16;100.00;99552.78;7390364;19;20380;-64
2024/01/06 01:01:46;;;;;;;24.63;21.33;;;;;;;5.14;100.00;99565.25;7389959;19;20389;-64
2024/01/06 01:04:13;;;;;;;22.83;20.33;;;;;;;5.13;100.00;99553.13;7388703;19;20848;-63
2024/01/06 01:06:39;;;;;;;24.88;21.05;;;;;;;5.14;100.00;99562.63;7387511;19;20364;-63
2024/01/06 01:09:06;;;;;;;24.00;20.85;;;;;;;5.12;100.00;99570.69;7393265;19;20524;-63
2024/01/06 01:11:33;;;;;;;25.37;21.47;;;;;;;5.16;100.00;99573.81;7390766;19;20886;-63
2024/01/06 01:13:59;;;;;;;24.90;21.63;;;;;;;5.15;100.00;99573.00;7394267;19;20879;-63
2024/01/06 01:16:26;;;;;;;29.45;21.98;;;;;;;5.16;100.00;99574.63;7398739;19;20372;-64
2024/01/06 01:18:53;;;;;;;25.45;22.15;;;;;;;5.15;100.00;99574.81;7396185;19;20849;-63
2024/01/06 01:21:20;;;;;;;27.20;21.98;;;;;;;5.17;100.00;99580.72;7396027;19;20707;-63
2024/01/06 01:23:46;;;;;;;33.50;23.92;;;;;;;5.16;100.00;99585.13;7394079;19;20698;-64
2024/01/06 01:26:13;;;;;;;24.83;22.13;;;;;;;5.18;100.00;99592.84;7395286;19;20364;-63
2024/01/06 01:28:40;;;;;;;25.40;21.90;;;;;;;5.19;100.00;99594.50;7393800;19;20385;-64
2024/01/06 01:31:06;;;;;;;23.23;20.60;;;;;;;5.17;100.00;99581.53;7395760;19;20360;-64
2024/01/06 01:33:33;;;;;;;23.67;20.60;;;;;;;5.17;100.00;99597.31;7397922;19;20380;-64
2024/01/06 01:36:00;;;;;;;25.08;20.77;;;;;;;5.15;100.00;99601.91;7394908;19;20896;-64
2024/01/06 01:38:28;;;;;;;25.23;20.88;;;;;;;5.15;100.00;99598.47;7394782;19;20348;-64
2024/01/06 01:40:55;;;;;;;24.67;21.02;;;;;;;5.14;100.00;99597.63;7397600;19;21014;-63
2024/01/06 01:43:23;;;;;;;25.02;21.00;;;;;;;5.13;100.00;99592.56;7395927;19;20360;-65
2024/01/06 01:45:58;;;;;;;24.95;21.13;;;;;;;5.12;100.00;99599.59;7395761;19;20360;-64
2024/01/06 01:48:25;;;;;;;31.02;22.33;;;;;;;5.15;100.00;99601.09;7392572;19;20372;-64
2024/01/06 01:50:53;;;;;;;35.00;23.47;;;;;;;5.15;100.00;99607.16;7397623;19;20363;-63
2024/01/06 01:53:21;;;;;;;25.92;23.13;;;;;;;5.13;100.00;99598.63;7394262;19;20378;-64
2024/01/06 01:55:48;;;;;;;24.58;22.00;;;;;;;5.14;100.00;99604.69;7397279;19;20364;-64
2024/01/06 01:58:15;;;;;;;23.35;20.58;;;;;;;5.14;100.00;99608.13;7393088;19;20364;-64
2024/01/06 02:00:42;;;;;;;23.13;20.07;;;;;;;5.10;100.00;99606.84;7396030;19;20895;-64
2024/01/06 02:03:12;;;;;;;23.70;19.20;;;;;;;5.10;100.00;99601.59;7396944;19;20340;-64
2024/01/06 02:05:39;;;;;;;26.33;20.42;;;;;;;5.10;100.00;99609.50;7393202;19;20359;-64
2024/01/06 02:08:06;;;;;;;25.50;20.58;;;;;;;5.09;100.00;99607.81;7392455;19;20382;-64
2024/01/06 02:10:33;;;;;;;23.40;20.15;;;;;;;5.07;100.00;99612.44;7396214;19;20360;-64
2024/01/06 02:13:10;;;;;;;24.63;20.05;;;;;;;5.06;100.00;99610.81;7397740;19;20361;-64
2024/01/06 02:15:38;;;;;;;24.17;20.38;;;;;;;5.06;100.00;99608.16;7392521;19;20345;-64
2024/01/06 02:18:05;;;;;;;25.25;20.40;;;;;;;5.05;100.00;99617.03;7393264;19;20404;-64
2024/01/06 02:20:32;;;;;;;32.85;21.98;;;;;;;5.04;100.00;99610.97;7393327;19;20371;-64
2024/01/06 02:23:00;;;;;;;23.55;19.88;;;;;;;5.04;100.00;99623.28;7393452;19;20360;-64
2024/01/06 02:25:27;;;;;;;22.80;19.40;;;;;;;5.03;100.00;99626.88;7391723;19;20368;-64
2024/01/06 02:27:55;;;;;;;22.80;19.35;;;;;;;5.03;100.00;99626.88;7390243;19;20900;-64
2024/01/06 02:30:21;;;;;;;23.73;19.38;;;;;;;5.02;100.00;99630.50;7396174;19;20364;-64
2024/01/06 02:32:48;;;;;;;22.40;19.60;;;;;;;5.02;100.00;99625.25;7397063;19;20348;-64
2024/01/06 02:35:15;;;;;;;26.23;20.23;;;;;;;5.01;100.00;99629.66;7392985;19;20412;-64
2024/01/06 02:37:42;;;;;;;25.27;20.58;;;;;;;5.02;100.00;99633.16;7390173;19;20365;-65
2024/01/06 02:40:09;;;;;;;24.60;20.17;;;;;;;5.03;100.00;99637.41;7393799;19;20368;-64
2024/01/06 02:42:36;;;;;;;25.50;20.25;;;;;;;5.03;100.00;99642.66;7393006;19;20934;-64
2024/01/06 02:45:03;;;;;;;25.67;20.38;;;;;;;5.01;100.00;99645.44;7393341;19;20355;-64
2024/01/06 02:47:29;;;;;;;24.77;19.38;;;;;;;5.00;100.00;99643.81;7395974;19;20693;-64
2024/01/06 02:49:56;;;;;;;24.42;19.50;;;;;;;5.00;100.00;99643.00;7394180;19;20862;-65
2024/01/06 02:52:23;;;;;;;24.73;20.00;;;;;;;4.97;100.00;99644.13;7391777;19;20334;-64
2024/01/06 02:54:49;;;;;;;24.83;20.30;;;;;;;4.96;100.00;99650.38;7393533;19;20364;-64
2024/01/06 02:57:18;;;;;;;25.27;20.30;;;;;;;4.93;100.00;99648.09;7386650;19;20352;-64
2024/01/06 02:59:45;;;;;;;29.30;21.95;;;;;;;4.93;100.00;99657.75;7383770;19;20364;-65
2024/01/06 03:02:11;;;;;;;31.50;22.30;;;;;;;4.93;100.00;99644.63;7392106;19;20408;-65
2024/01/06 03:04:38;;;;;;;37.95;27.00;;;;;;;4.91;100.00;99652.69;7389747;19;20344;-65
2024/01/06 03:07:05;;;;;;;27.73;22.88;;;;;;;4.90;100.00;99654.47;7389355;19;20355;-65
2024/01/06 03:09:31;;;;;;;30.00;23.55;;;;;;;4.90;100.00;99657.09;7394538;19;20716;-64
2024/01/06 03:11:58;;;;;;;27.70;22.75;;;;;;;4.89;100.00;99662.53;7389912;19;20348;-64
2024/01/06 03:14:25;;;;;;;28.15;22.25;;;;;;;4.87;100.00;99664.50;7391674;19;20389;-65
2024/01/06 03:16:52;;;;;;;28.88;22.42;;;;;;;4.84;100.00;99660.38;7392796;19;20336;-64
2024/01/06 03:19:19;;;;;;;29.33;22.23;;;;;;;4.81;100.00;99668.59;7394474;19;20372;-65
2024/01/06 03:21:46;;;;;;;28.00;22.40;;;;;;;4.82;100.00;99664.97;7392386;19;20369;-65
2024/01/06 03:24:12;;;;;;;31.67;23.75;;;;;;;4.79;100.00;99670.56;7390606;19;20381;-65
2024/01/06 03:26:39;;;;;;;29.33;21.77;;;;;;;4.79;100.00;99669.75;7391804;19;20340;-64
2024/01/06 03:29:06;;;;;;;27.98;23.02;;;;;;;4.78;100.00;99676.81;7392767;19;20429;-64
2024/01/06 03:31:32;;;;;;;30.92;23.73;;;;;;;4.79;100.00;99677.63;7393588;19;20351;-64
2024/01/06 03:33:59;;;;;;;29.35;23.02;;;;;;;4.76;100.00;99678.78;7390352;19;20369;-64
2024/01/06 03:36:26;;;;;;;28.40;23.00;;;;;;;4.76;100.00;99673.53;7383485;19;20837;-65
2024/01/06 03:38:53;;;;;;;31.73;24.95;;;;;;;4.76;100.00;99683.19;7392726;19;20369;-65
2024/01/06 03:41:20;;;;;;;31.27;23.75;;;;;;;4.75;100.00;99682.38;7391328;19;20361;-65
2024/01/06 03:43:46;;;;;;;30.38;22.65;;;;;;;4.77;100.00;99687.50;7390921;19;20356;-65
2024/01/06 03:46:13;;;;;;;29.27;22.83;;;;;;;4.76;100.00;99689.31;7389529;19;20352;-64
2024/01/06 03:48:40;;;;;;;28.77;22.27;;;;;;;4.76;100.00;99689.31;7391231;19;20366;-65
2024/01/06 03:51:07;;;;;;;28.17;22.13;;;;;;;4.75;100.00;99698.16;7389196;19;20424;-65
2024/01/06 03:53:34;;;;;;;28.45;21.60;;;;;;;4.74;100.00;99693.91;7393180;19;20769;-65
2024/01/06 03:56:00;;;;;;;30.33;22.60;;;;;;;4.75;100.00;99694.72;7389838;19;20328;-65
2024/01/06 03:58:27;;;;;;;28.50;21.95;;;;;;;4.76;100.00;99686.69;7390360;19;20349;-65
2024/01/06 04:00:54;;;;;;;30.08;22.50;;;;;;;4.75;100.00;99692.91;7391854;19;20421;-64
2024/01/06 04:03:21;;;;;;;28.33;22.05;;;;;;;4.74;100.00;99693.91;7393126;19;20352;-64
2024/01/06 04:05:48;;;;;;;29.65;23.52;;;;;;;4.72;100.00;99697.66;7390319;19;20353;-64
2024/01/06 04:08:14;;;;;;;33.88;23.50;;;;;;;4.71;100.00;99696.84;7389020;19;20344;-64
2024/01/06 04:10:41;;;;;;;31.85;23.98;;;;;;;4.68;100.00;99702.41;7389735;19;20380;-64
2024/01/06 04:13:08;;;;;;;28.55;22.08;;;;;;;4.68;100.00;99708.50;7387970;19;20375;-65
2024/01/06 04:15:35;;;;;;;26.73;21.03;;;;;;;4.67;100.00;99711.25;7394003;19;20357;-64
2024/01/06 04:18:03;;;;;;;29.52;21.60;;;;;;;4.67;100.00;99713.91;7391582;19;20333;-64
2024/01/06 04:20:31;;;;;;;28.40;21.60;;;;;;;4.65;100.00;99718.47;7387930;19;20348;-64
2024/01/06 04:22:59;;;;;;;27.92;20.85;;;;;;;4.64;100.00;99712.41;7389755;19;20332;-64
2024/01/06 04:25:25;;;;;;;26.30;20.75;;;;;;;4.63;100.00;99718.66;7390594;19;20373;-64
2024/01/06 04:27:52;;;;;;;29.60;21.05;;;;;;;4.62;100.00;99721.44;7388145;19;20369;-64
2024/01/06 04:30:20;;;;;;;30.08;22.10;;;;;;;4.62;100.00;99726.69;7388710;19;20344;-64
2024/01/06 04:32:50;;;;;;;28.97;21.87;;;;;;;4.60;100.00;99726.84;7393024;19;20426;-64
2024/01/06 04:35:17;;;;;;;27.77;21.02;;;;;;;4.58;100.00;99730.63;7388826;19;20364;-65
2024/01/06 04:37:44;;;;;;;27.48;20.45;;;;;;;4.56;100.00;99735.22;7390273;19;20352;-65
2024/01/06 04:40:11;;;;;;;27.70;20.92;;;;;;;4.56;100.00;99737.84;7391168;19;20336;-64
2024/01/06 04:42:38;;;;;;;27.50;20.80;;;;;;;4.55;100.00;99746.69;7389733;19;20375;-64
2024/01/06 04:45:05;;;;;;;28.00;20.58;;;;;;;4.57;100.00;99756.06;7390452;19;20705;-67
2024/01/06 04:47:32;;;;;;;29.20;21.58;;;;;;;4.58;100.00;99754.25;7387039;19;20372;-64
2024/01/06 04:49:59;;;;;;;30.52;21.85;;;;;;;4.58;100.00;99757.72;7387714;19;20458;-64
2024/01/06 04:52:26;;;;;;;28.95;21.23;;;;;;;4.59;100.00;99756.75;7389668;19;20340;-64
2024/01/06 04:54:53;;;;;;;29.45;21.40;;;;;;;4.59;100.00;99750.66;7390528;19;20365;-64
2024/01/06 04:57:20;;;;;;;29.35;21.85;;;;;;;4.58;100.00;99762.16;7392117;19;20357;-64
2024/01/06 04:59:47;;;;;;;29.20;21.40;;;;;;;4.58;100.00;99757.72;7388851;19;20332;-64
2024/01/06 05:02:14;;;;;;;27.80;20.92;;;;;;;4.60;100.00;99763.63;7386694;19;20360;-64
2024/01/06 05:04:41;;;;;;;29.95;22.08;;;;;;;4.61;100.00;99759.19;7387129;19;20714;-65
2024/01/06 05:07:08;;;;;;;29.88;22.23;;;;;;;4.63;100.00;99758.06;7387777;19;20360;-64
2024/01/06 05:09:34;;;;;;;29.80;21.80;;;;;;;4.63;100.00;99760.69;7390590;19;20365;-64
2024/01/06 05:12:01;;;;;;;30.45;21.45;;;;;;;4.66;100.00;99759.56;7389204;19;20356;-65
2024/01/06 05:14:28;;;;;;;32.33;21.65;;;;;;;4.66;100.00;99762.19;7387336;19;20348;-65
2024/01/06 05:16:54;;;;;;;30.10;22.13;;;;;;;4.65;100.00;99765.78;7389402;19;20864;-64
2024/01/06 05:19:21;;;;;;;30.35;22.17;;;;;;;4.64;100.00;99769.41;7387782;19;20500;-64
2024/01/06 05:21:48;;;;;;;28.27;21.30;;;;;;;4.64;100.00;99779.91;7391351;19;20856;-64
2024/01/06 05:24:15;;;;;;;29.55;21.88;;;;;;;4.63;100.00;99788.75;7386043;19;20885;-64
2024/01/06 05:26:42;;;;;;;27.35;20.92;;;;;;;4.64;100.00;99785.16;7388494;19;20348;-65
2024/01/06 05:29:09;;;;;;;30.52;22.08;;;;;;;4.63;100.00;99784.34;7391556;19;20372;-64
2024/01/06 05:31:35;;;;;;;31.10;22.08;;;;;;;4.62;100.00;99787.13;7388712;19;20695;-65
2024/01/06 05:34:02;;;;;;;30.52;21.90;;;;;;;4.62;100.00;99793.19;7392003;19;20336;-64
2024/01/06 05:36:29;;;;;;;30.80;21.95;;;;;;;4.61;100.00;99795.97;7386375;19;20940;-65
2024/01/06 05:38:56;;;;;;;31.05;21.25;;;;;;;4.61;100.00;99802.06;7388705;19;20332;-64
2024/01/06 05:41:22;;;;;;;28.75;20.65;;;;;;;4.63;100.00;99799.25;7387359;19;20360;-65
2024/01/06 05:43:49;;;;;;;28.27;21.02;;;;;;;4.66;100.00;99798.94;7390804;19;20364;-66
2024/01/06 05:46:25;;;;;;;28.90;21.23;;;;;;;4.66;100.00;99798.94;7388844;19;20324;-64
2024/01/06 05:48:51;;;;;;;29.25;21.15;;;;;;;4.64;100.00;99795.66;7391178;19;20369;-65
2024/01/06 05:51:18;;;;;;;30.48;21.52;;;;;;;4.63;100.00;99801.88;7388496;19;20360;-65
2024/01/06 05:53:45;;;;;;;30.50;21.25;;;;;;;4.61;100.00;99802.06;7392140;19;20366;-64
2024/01/06 05:56:21;;;;;;;27.83;20.55;;;;;;;4.59;100.00;99798.78;7388189;19;20332;-64
2024/01/06 05:58:48;;;;;;;28.95;21.23;;;;;;;4.57;100.00;99799.88;7389543;19;20336;-65
2024/01/06 06:01:14;;;;;;;28.77;20.48;;;;;;;4.56;100.00;99814.00;7392808;19;20352;-64
2024/01/06 06:03:41;;;;;;;27.67;20.37;;;;;;;4.55;100.00;99817.59;7394333;19;20357;-65
2024/01/06 06:06:08;;;;;;;30.48;21.20;;;;;;;4.56;100.00;99821.88;7390714;19;20348;-64
2024/01/06 06:08:34;;;;;;;29.80;21.05;;;;;;;4.57;100.00;99824.38;7395780;19;20368;-66
2024/01/06 06:11:01;;;;;;;29.30;20.42;;;;;;;4.57;100.00;99832.25;7397499;19;20909;-65
2024/01/06 06:13:29;;;;;;;29.42;21.17;;;;;;;4.57;100.00;99836.66;7391569;19;20372;-64
2024/01/06 06:15:55;;;;;;;30.80;21.40;;;;;;;4.55;100.00;99838.63;7395487;19;20356;-64
2024/01/06 06:18:22;;;;;;;28.92;21.27;;;;;;;4.55;100.00;99841.25;7390302;19;20336;-65
2024/01/06 06:20:49;;;;;;;31.13;21.55;;;;;;;4.55;100.00;99846.50;7392250;19;20351;-65
2024/01/06 06:23:15;;;;;;;31.07;22.70;;;;;;;4.55;100.00;99847.34;7392487;19;20892;-65
2024/01/06 06:25:42;;;;;;;32.13;21.83;;;;;;;4.56;100.00;99850.78;7392955;19;20380;-64
2024/01/06 06:28:09;;;;;;;34.33;23.20;;;;;;;4.57;100.00;99857.66;7392797;19;20382;-64
2024/01/06 06:30:36;;;;;;;35.53;23.37;;;;;;;4.56;100.00;99867.34;7396666;19;20849;-65
2024/01/06 06:33:03;;;;;;;32.83;22.92;;;;;;;4.55;100.00;99870.13;7394735;19;20895;-65
2024/01/06 06:35:29;;;;;;;32.78;23.52;;;;;;;4.54;100.00;99871.94;7391534;19;20435;-64
2024/01/06 06:37:56;;;;;;;34.83;23.37;;;;;;;4.55;100.00;99870.13;7397917;19;20699;-64
2024/01/06 06:40:23;;;;;;;34.60;23.93;;;;;;;4.56;100.00;99884.94;7392072;19;20867;-66
2024/01/06 06:42:50;;;;;;;35.83;24.60;;;;;;;4.54;100.00;99885.06;7393149;19;20357;-64
2024/01/06 06:45:20;;;;;;;36.70;24.42;;;;;;;4.56;100.00;99892.81;7394747;19;20368;-64
2024/01/06 06:47:47;;;;;;;35.83;24.07;;;;;;;4.55;100.00;99892.00;7396479;19;20365;-65
2024/01/06 06:50:13;;;;;;;35.35;23.80;;;;;;;4.57;100.00;99899.69;7391639;19;20427;-64
2024/01/06 06:52:41;;;;;;;38.90;25.63;;;;;;;4.57;100.00;99902.31;7392952;19;20716;-64
2024/01/06 06:55:08;;;;;;;38.72;25.88;;;;;;;4.54;100.00;99903.47;7390884;19;20336;-65
2024/01/06 06:57:36;;;;;;;36.38;24.77;;;;;;;4.58;100.00;99906.63;7394319;19;20348;-64
2024/01/06 07:00:03;;;;;;;37.33;25.48;;;;;;;4.56;100.00;99908.56;7396274;19;20340;-64
2024/01/06 07:02:30;;;;;;;40.13;26.77;;;;;;;4.56;100.00;99913.81;7395018;19;20864;-64
2024/01/06 07:04:56;;;;;;;38.85;26.17;;;;;;;4.54;100.00;99908.72;7394005;19;20340;-65
2024/01/06 07:07:23;;;;;;;39.37;25.40;;;;;;;4.54;100.00;99918.41;7394971;19;20364;-64
2024/01/06 07:09:50;;;;;;;38.95;26.40;;;;;;;4.54;100.00;99915.78;7392836;19;20884;-65
2024/01/06 07:12:16;;;;;;;42.90;27.88;;;;;;;4.55;100.00;99922.66;7390794;19;20333;-65
2024/01/06 07:14:43;;;;;;;44.03;29.02;;;;;;;4.54;100.00;99923.66;7391107;19;20444;-65
2024/01/06 07:17:10;;;;;;;43.65;28.30;;;;;;;4.51;100.00;99922.16;7394565;19;20364;-64
2024/01/06 07:19:38;;;;;;;46.63;28.85;;;;;;;4.50;100.00;99925.75;7392917;19;20445;-64
2024/01/06 07:22:05;;;;;;;42.92;27.73;;;;;;;4.48;100.00;99933.81;7392240;19;20321;-64
2024/01/06 07:24:33;;;;;;;42.80;27.42;;;;;;;4.44;100.00;99937.72;7394261;19;20364;-65
2024/01/06 07:26:59;;;;;;;46.50;29.40;;;;;;;4.40;100.00;99936.38;7395042;19;20565;-65
2024/01/06 07:29:26;;;;;;;45.25;28.63;;;;;;;4.41;100.00;99932.75;7391485;19;20875;-65
2024/01/06 07:31:53;;;;;;;44.90;28.75;;;;;;;4.40;100.00;99935.53;7395213;19;20671;-64
2024/01/06 07:34:19;;;;;;;43.40;28.90;;;;;;;4.40;100.00;99957.38;7391270;19;20486;-64
2024/01/06 07:36:46;;;;;;;46.15;29.73;;;;;;;4.40;100.00;99951.28;7390448;19;20381;-64
2024/01/06 07:39:13;;;;;;;44.03;28.27;;;;;;;4.40;100.00;99960.00;7394637;19;20364;-65
2024/01/06 07:41:40;;;;;;;45.17;29.03;;;;;;;4.38;100.00;99969.00;7395219;19;20695;-64
2024/01/06 07:44:06;;;;;;;44.63;28.27;;;;;;;4.38;100.00;99979.50;7391903;19;20344;-64
2024/01/06 07:46:35;;;;;;;44.88;29.05;;;;;;;4.35;100.00;99975.38;7393616;19;20361;-64
2024/01/06 07:49:01;;;;;;;45.42;29.08;;;;;;;4.36;100.00;99989.38;7390869;19;20372;-64
2024/01/06 07:51:28;;;;;;;45.80;29.85;;;;;;;4.37;100.00;99983.13;7391773;19;20381;-65
2024/01/06 07:53:55;;;;;;;43.80;27.93;;;;;;;4.34;100.00;99994.75;7390118;19;20352;-64
2024/01/06 07:56:22;;;;;;;46.58;28.65;;;;;;;4.33;100.00;99997.53;7392601;19;20381;-65
2024/01/06 07:58:48;;;;;;;45.83;29.63;;;;;;;4.35;100.00;99992.94;7390698;19;20340;-65
2024/01/06 08:01:15;;;;;;;44.58;28.80;;;;;;;4.34;100.00;99989.50;7391411;19;20357;-65
2024/01/06 08:03:42;;;;;;;46.40;29.45;;;;;;;4.38;100.00;99987.38;7394355;19;20357;-65
2024/01/06 08:06:10;;;;;;;44.60;29.97;;;;;;;4.39;100.00;100002.16;7394422;19;20400;-65
2024/01/06 08:08:37;;;;;;;44.83;28.48;;;;;;;4.38;100.00;100001.34;7387814;19;20387;-65
2024/01/06 08:11:03;;;;;;;42.45;27.90;;;;;;;4.37;100.00;100012.81;7392462;19;20344;-64
2024/01/06 08:13:30;;;;;;;39.60;26.52;;;;;;;4.36;100.00;100013.00;7389909;19;20340;-65
2024/01/06 08:15:56;;;;;;;41.40;26.83;;;;;;;4.34;100.00;100023.63;7394743;19;20520;-64
2024/01/06 08:18:23;;;;;;;39.42;25.92;;;;;;;4.35;100.00;100027.91;7394866;19;20344;-65
2024/01/06 08:20:50;;;;;;;42.03;26.38;;;;;;;4.36;100.00;100026.94;7391329;19;20381;-65
2024/01/06 08:23:18;;;;;;;40.85;26.25;;;;;;;4.40;100.00;100040.56;7393511;19;20364;-65
2024/01/06 08:25:45;;;;;;;41.72;26.67;;;;;;;4.43;100.00;100030.59;7391052;19;20361;-64
2024/01/06 08:28:14;;;;;;;38.25;26.42;;;;;;;4.43;100.00;100030.59;7389375;19;20998;-64
2024/01/06 08:30:41;;;;;;;36.55;24.50;;;;;;;4.44;100.00;100037.53;7390719;19;20352;-65
2024/01/06 08:33:08;;;;;;;30.48;23.02;;;;;;;4.41;99.64;100045.69;7391127;19;21030;-64
2024/01/06 08:35:39;;;;;;;33.58;24.13;;;;;;;4.41;99.55;100053.56;7386439;19;20851;-64
2024/01/06 08:38:07;;;;;;;35.97;25.08;;;;;;;4.42;99.98;100060.47;7392440;19;20349;-64
2024/01/06 08:40:35;;;;;;;37.93;26.50;;;;;;;4.43;99.86;100067.38;7390092;19;20374;-65
2024/01/06 08:43:02;;;;;;;42.00;28.25;;;;;;;4.42;99.65;100064.88;7391067;19;20762;-66
2024/01/06 08:45:29;;;;;;;38.83;26.75;;;;;;;4.44;99.56;100078.69;7389879;19;20436;-66
2024/01/06 08:47:57;;;;;;;40.65;26.63;;;;;;;4.42;99.70;100081.50;7389745;19;20975;-65
2024/01/06 08:50:23;;;;;;;44.40;28.05;;;;;;;4.42;99.46;100081.50;7391852;19;20453;-66
2024/01/06 08:52:50;;;;;;;37.38;25.30;;;;;;;4.43;99.68;100088.38;7391142;19;20384;-63
2024/01/06 08:55:17;;;;;;;36.67;24.80;;;;;;;4.42;99.48;100081.50;7391125;19;20365;-63
2024/01/06 08:57:43;;;;;;;35.60;23.92;;;;;;;4.38;99.36;100085.38;7392578;19;20360;-63
2024/01/06 09:00:11;;;;;;;34.55;23.38;;;;;;;4.38;99.45;100088.00;7390805;19;20733;-63
2024/01/06 09:02:38;;;;;;;36.40;23.80;;;;;;;4.37;99.61;100099.47;7390134;19;20780;-63
2024/01/06 09:05:05;;;;;;;30.67;21.63;;;;;;;4.36;99.31;100097.84;7388000;19;20371;-64
2024/01/06 09:07:31;;;;;;;29.35;20.40;;;;;;;4.36;99.18;100102.28;7392486;19;20732;-65
2024/01/06 09:09:59;;;;;;;31.20;20.77;;;;;;;4.35;99.45;100116.38;7392217;19;20365;-64
2024/01/06 09:12:26;;;;;;;30.05;21.23;;;;;;;4.36;99.40;100123.28;7389057;19;20361;-64
2024/01/06 09:14:52;;;;;;;28.98;20.05;;;;;;;4.37;99.21;100131.00;7382646;19;20379;-64
2024/01/06 09:17:19;;;;;;;27.40;20.17;;;;;;;4.35;99.06;100132.94;7389296;19;20346;-64
2024/01/06 09:19:47;;;;;;;24.88;18.45;;;;;;;4.34;99.13;100131.31;7389888;19;20368;-64
2024/01/06 09:22:14;;;;;;;26.15;19.42;;;;;;;4.34;99.31;100138.34;7389308;19;20330;-64
2024/01/06 09:24:41;;;;;;;27.02;20.40;;;;;;;4.35;99.29;100137.38;7386632;19;20383;-64
2024/01/06 09:27:08;;;;;;;29.00;19.65;;;;;;;4.36;99.32;100145.09;7390782;19;20357;-63
2024/01/06 09:29:35;;;;;;;27.88;19.88;;;;;;;4.40;99.60;100146.47;7386593;19;20389;-63
2024/01/06 09:32:02;;;;;;;28.23;20.25;;;;;;;4.44;99.17;100150.44;7390109;19;20356;-63
2024/01/06 09:34:28;;;;;;;27.13;20.40;;;;;;;4.45;99.03;100165.22;7391452;19;20348;-64
2024/01/06 09:36:55;;;;;;;29.05;20.90;;;;;;;4.45;98.71;100167.84;7395479;19;20368;-64
2024/01/06 09:39:22;;;;;;;30.02;21.17;;;;;;;4.44;98.66;100157.47;7396482;19;20332;-63
2024/01/06 09:41:49;;;;;;;27.05;20.65;;;;;;;4.43;98.59;100164.53;7399573;19;20362;-63
2024/01/06 09:44:17;;;;;;;30.58;21.65;;;;;;;4.44;98.55;100167.97;7398145;19;20370;-64
2024/01/06 09:46:44;;;;;;;32.05;22.25;;;;;;;4.43;98.37;100171.59;7399478;19;20353;-63
2024/01/06 09:49:13;;;;;;;28.95;21.38;;;;;;;4.43;98.50;100168.97;7395333;19;20409;-64
2024/01/06 09:51:40;;;;;;;32.40;22.30;;;;;;;4.43;98.39;100171.59;7397933;19;20368;-64
2024/01/06 09:54:12;;;;;;;29.10;21.42;;;;;;;4.42;98.52;100170.78;7398920;19;20424;-64
2024/01/06 09:56:39;;;;;;;28.73;20.63;;;;;;;4.42;98.38;100170.78;7395920;19;20347;-64
2024/01/06 09:59:05;;;;;;;30.65;21.48;;;;;;;4.41;98.29;100177.00;7397421;19;20373;-63
2024/01/06 10:01:32;;;;;;;30.83;22.00;;;;;;;4.43;98.55;100172.41;7396480;19;20368;-63
2024/01/06 10:03:59;;;;;;;33.17;24.00;;;;;;;4.47;98.43;100175.59;7398877;19;20450;-63
2024/01/06 10:06:26;;;;;;;34.80;24.95;;;;;;;4.51;98.50;100173.50;7397541;19;20364;-63
2024/01/06 10:08:53;;;;;;;34.70;24.40;;;;;;;4.54;98.33;100173.19;7394426;19;20348;-63
2024/01/06 10:11:22;;;;;;;34.40;24.38;;;;;;;4.56;98.22;100187.00;7396088;19;21063;-63
2024/01/06 10:13:54;;;;;;;32.15;24.10;;;;;;;4.60;98.35;100190.97;7398504;19;20855;-63
2024/01/06 10:16:22;;;;;;;34.60;24.80;;;;;;;4.61;97.91;100197.88;7397454;19;20491;-63
2024/01/06 10:18:49;;;;;;;32.10;23.08;;;;;;;4.62;97.86;100196.91;7394946;19;20373;-63
2024/01/06 10:21:21;;;;;;;30.88;23.42;;;;;;;4.60;97.36;100204.13;7394641;19;20678;-62
2024/01/06 10:23:49;;;;;;;33.53;23.93;;;;;;;4.56;97.33;100202.75;7397220;19;20980;-63
2024/01/06 10:26:15;;;;;;;30.73;22.83;;;;;;;4.54;97.29;100204.72;7397236;19;20340;-63
2024/01/06 10:28:42;;;;;;;31.88;23.02;;;;;;;4.47;97.21;100202.66;7393129;19;20356;-63
2024/01/06 10:31:09;;;;;;;34.08;23.33;;;;;;;4.47;97.43;100209.72;7397362;19;20385;-63
2024/01/06 10:33:36;;;;;;;30.92;22.70;;;;;;;4.44;97.31;100208.22;7396895;19;20365;-63
2024/01/06 10:36:05;;;;;;;31.63;22.63;;;;;;;4.45;97.44;100209.03;7395617;19;21123;-63
2024/01/06 10:38:33;;;;;;;31.92;23.08;;;;;;;4.46;97.77;100208.91;7395025;19;20368;-63
2024/01/06 10:41:10;;;;;;;31.88;23.30;;;;;;;4.51;97.80;100210.25;7395481;19;20348;-64
2024/01/06 10:43:41;;;;;;;30.40;22.52;;;;;;;4.53;97.85;100208.28;7395931;19;20359;-63
2024/01/06 10:46:10;;;;;;;30.17;22.57;;;;;;;4.56;97.85;100208.00;7395251;19;20353;-63
2024/01/06 10:48:42;;;;;;;28.95;22.15;;;;;;;4.58;97.82;100208.69;7396426;19;20373;-63
2024/01/06 10:51:11;;;;;;;29.48;22.42;;;;;;;4.59;97.28;100218.22;7395316;19;20364;-63
2024/01/06 10:53:40;;;;;;;31.25;23.58;;;;;;;4.57;96.93;100220.16;7396269;19;20332;-63
2024/01/06 10:56:10;;;;;;;28.05;21.27;;;;;;;4.56;97.15;100224.59;7395172;19;20419;-63
2024/01/06 10:58:49;;;;;;;30.00;21.98;;;;;;;4.56;96.85;100229.03;7395712;19;20391;-63
2024/01/06 11:01:24;;;;;;;30.93;22.47;;;;;;;4.55;97.03;100236.09;7394512;19;20742;-63
2024/01/06 11:03:56;;;;;;;28.07;21.53;;;;;;;4.53;96.92;100231.94;7396741;19;20352;-62
2024/01/06 11:06:24;;;;;;;27.92;21.00;;;;;;;4.52;96.83;100236.38;7395666;19;20387;-63
2024/01/06 11:08:50;;;;;;;26.85;20.27;;;;;;;4.46;96.53;100235.16;7395191;19;20385;-63
2024/01/06 11:11:19;;;;;;;26.55;20.52;;;;;;;4.43;96.29;100235.44;7394959;19;20393;-63
2024/01/06 11:13:47;;;;;;;28.23;21.58;;;;;;;4.41;96.46;100236.56;7394863;19;20353;-62
2024/01/06 11:16:34;;;;;;;27.40;20.35;;;;;;;4.38;96.44;100237.69;7393737;19;20872;-63